createdAt,value
2022-11-15T00:00:39.162Z,14.17
2022-11-15T00:03:07.105Z,15.12
2022-11-15T00:05:36.807Z,12.96
2022-11-15T00:08:05.147Z,14.65
2022-11-15T00:10:33.156Z,13.75
2022-11-15T00:13:02.538Z,12.31
2022-11-15T00:15:30.515Z,14.77
2022-11-15T00:17:58.341Z,13.33
2022-11-15T00:20:26.227Z,14.49
2022-11-15T00:22:54.078Z,14.53
2022-11-15T00:25:21.892Z,15.49
2022-11-15T00:27:49.807Z,14.07
2022-11-15T00:30:19.393Z,15.55
2022-11-15T00:32:47.260Z,14.52
2022-11-15T00:35:15.136Z,14.57
2022-11-15T00:37:42.931Z,15.63
2022-11-15T00:40:13.818Z,14.78
2022-11-15T00:42:45.385Z,15.66
2022-11-15T00:45:13.344Z,15.13
2022-11-15T00:47:42.645Z,15.30
2022-11-15T00:50:14.866Z,15.11
2022-11-15T00:52:43.280Z,14.18
2022-11-15T00:55:11.550Z,15.17
2022-11-15T00:57:39.375Z,15.18
2022-11-15T01:00:08.681Z,14.29
2022-11-15T01:02:36.620Z,15.17
2022-11-15T01:05:06.576Z,15.57
2022-11-15T01:07:34.623Z,14.61
2022-11-15T01:10:02.690Z,15.32
2022-11-15T01:12:30.621Z,13.54
2022-11-15T01:14:58.615Z,14.57
2022-11-15T01:17:26.504Z,14.01
2022-11-15T01:19:54.292Z,14.93
2022-11-15T01:22:23.555Z,15.63
2022-11-15T01:24:51.765Z,15.71
2022-11-15T01:27:19.743Z,15.27
2022-11-15T01:29:47.511Z,16.15
2022-11-15T01:32:15.363Z,14.33
2022-11-15T01:34:43.195Z,15.87
2022-11-15T01:37:11.254Z,16.22
2022-11-15T01:39:43.903Z,14.98
2022-11-15T01:42:14.249Z,14.40
2022-11-15T01:44:44.397Z,15.61
2022-11-15T01:47:17.188Z,15.38
2022-11-15T01:49:50.896Z,16.24
2022-11-15T01:52:20.292Z,13.98
2022-11-15T01:54:49.528Z,14.13
2022-11-15T01:57:17.665Z,14.84
2022-11-15T01:59:45.683Z,14.62
2022-11-15T02:02:14.684Z,14.48
2022-11-15T02:04:43.528Z,15.22
2022-11-15T02:07:12.625Z,14.10
2022-11-15T02:09:40.604Z,14.65
2022-11-15T02:12:10.364Z,15.38
2022-11-15T02:14:38.516Z,14.68
2022-11-15T02:17:13.135Z,15.83
2022-11-15T02:20:11.888Z,14.39
2022-11-15T02:22:43.336Z,16.28
2022-11-15T02:25:26.823Z,16.31
2022-11-15T02:28:21.696Z,16.32
2022-11-15T02:30:54.205Z,15.00
2022-11-15T02:33:29.808Z,15.09
2022-11-15T02:36:00.547Z,13.68
2022-11-15T02:38:33.334Z,15.51
2022-11-15T02:41:02.495Z,14.92
2022-11-15T02:43:49.209Z,14.79
2022-11-15T02:46:21.214Z,13.84
2022-11-15T02:48:49.171Z,15.60
2022-11-15T02:51:17.126Z,15.30
2022-11-15T02:53:45.035Z,14.99
2022-11-15T02:56:12.958Z,16.06
2022-11-15T02:58:51.492Z,15.73
2022-11-15T03:01:26.001Z,13.44
2022-11-15T03:04:00.408Z,15.68
2022-11-15T03:06:31.960Z,14.35
2022-11-15T03:09:05.294Z,13.97
2022-11-15T03:11:34.977Z,15.71
2022-11-15T03:14:04.938Z,15.51
2022-11-15T03:16:36.643Z,15.16
2022-11-15T03:19:06.659Z,16.41
2022-11-15T03:21:34.730Z,15.25
2022-11-15T03:24:05.102Z,16.04
2022-11-15T03:29:12.593Z,16.12
2022-11-15T03:31:51.525Z,15.79
2022-11-15T03:34:23.629Z,16.39
2022-11-15T03:36:52.373Z,16.42
2022-11-15T03:39:20.841Z,16.45
2022-11-15T03:41:50.484Z,16.27
2022-11-15T03:44:21.469Z,16.08
2022-11-15T03:46:53.817Z,16.30
2022-11-15T03:49:25.028Z,16.20
2022-11-15T03:51:52.945Z,16.24
2022-11-15T03:54:20.664Z,15.58
2022-11-15T03:56:48.396Z,16.42
2022-11-15T03:59:16.371Z,16.44
2022-11-15T04:01:44.122Z,16.41
2022-11-15T04:04:13.264Z,15.38
2022-11-15T04:06:43.720Z,16.45
2022-11-15T04:09:12.848Z,15.96
2022-11-15T04:11:40.763Z,16.12
2022-11-15T04:14:08.411Z,16.49
2022-11-15T04:16:40.955Z,15.99
2022-11-15T04:19:28.813Z,16.22
2022-11-15T04:22:20.997Z,15.43
2022-11-15T04:24:48.690Z,15.68
2022-11-15T04:27:16.460Z,16.50
2022-11-15T04:29:44.111Z,16.13
2022-11-15T04:32:12.142Z,16.55
2022-11-15T04:34:40.409Z,16.54
2022-11-15T04:37:15.134Z,16.51
2022-11-15T04:39:43.325Z,15.77
2022-11-15T04:42:11.275Z,15.72
2022-11-15T04:44:39.624Z,15.89
2022-11-15T04:47:07.796Z,15.90
2022-11-15T04:49:35.641Z,16.49
2022-11-15T04:52:03.596Z,15.41
2022-11-15T04:54:33.050Z,15.21
2022-11-15T04:57:01.074Z,16.44
2022-11-15T04:59:29.140Z,16.48
2022-11-15T05:01:56.891Z,16.46
2022-11-15T05:04:23.678Z,16.21
2022-11-15T05:06:51.798Z,16.30
2022-11-15T05:09:19.920Z,16.31
2022-11-15T05:11:50.836Z,16.24
2022-11-15T05:14:18.603Z,16.52
2022-11-15T05:16:46.388Z,16.00
2022-11-15T05:19:14.075Z,16.56
2022-11-15T05:21:42.019Z,16.39
2022-11-15T05:24:11.955Z,16.62
2022-11-15T05:26:42.617Z,16.61
2022-11-15T05:29:13.311Z,15.41
2022-11-15T05:31:42.877Z,15.68
2022-11-15T05:34:10.706Z,16.66
2022-11-15T05:36:41.306Z,15.82
2022-11-15T05:39:10.242Z,16.67
2022-11-15T05:41:39.270Z,16.63
2022-11-15T05:44:07.748Z,15.87
2022-11-15T05:46:36.918Z,16.65
2022-11-15T05:49:04.590Z,16.45
2022-11-15T05:51:32.400Z,15.55
2022-11-15T05:54:00.336Z,15.69
2022-11-15T05:56:28.314Z,16.68
2022-11-15T05:59:15.182Z,16.70
2022-11-15T06:01:46.036Z,16.27
2022-11-15T06:04:14.421Z,16.74
2022-11-15T06:14:43.574Z,15.81
2022-11-15T06:17:34.235Z,16.28
2022-11-15T06:20:26.970Z,15.66
2022-11-15T06:23:06.832Z,16.82
2022-11-15T06:25:49.457Z,16.26
2022-11-15T06:32:14.125Z,16.16
2022-11-15T06:38:53.404Z,14.36
2022-11-15T06:41:24.760Z,15.47
2022-11-15T06:44:15.771Z,14.95
2022-11-15T06:47:00.313Z,16.69
2022-11-15T06:50:30.223Z,16.66
2022-11-15T06:53:14.965Z,15.35
2022-11-15T07:00:05.726Z,12.77
2022-11-15T07:02:34.020Z,14.04
2022-11-15T07:05:02.195Z,15.92
2022-11-15T07:07:37.519Z,15.24
2022-11-15T07:10:13.982Z,15.41
2022-11-15T07:12:44.573Z,15.99
2022-11-15T07:15:12.363Z,14.16
2022-11-15T07:17:40.263Z,16.15
2022-11-15T07:20:13.289Z,16.20
2022-11-15T07:22:41.169Z,16.23
2022-11-15T07:25:11.775Z,16.13
2022-11-15T07:27:39.723Z,16.40
2022-11-15T07:30:08.562Z,16.08
2022-11-15T07:32:36.955Z,16.33
2022-11-15T07:35:05.025Z,16.21
2022-11-15T07:37:32.860Z,16.41
2022-11-15T07:40:00.522Z,16.43
2022-11-15T07:42:48.507Z,16.49
2022-11-15T07:45:16.523Z,16.19
2022-11-15T07:47:47.402Z,16.89
2022-11-15T07:50:15.303Z,16.89
2022-11-15T07:52:43.250Z,17.14
2022-11-15T07:55:11.058Z,17.31
2022-11-15T07:57:50.939Z,17.41
2022-11-15T08:00:19.765Z,17.36
2022-11-15T08:02:47.799Z,18.05
2022-11-15T08:05:15.996Z,18.03
2022-11-15T08:07:43.751Z,17.56
2022-11-15T08:10:13.695Z,18.10
2022-11-15T08:13:06.751Z,19.10
2022-11-15T08:16:27.488Z,18.98
2022-11-15T08:18:55.496Z,19.37
2022-11-15T08:21:29.080Z,19.49
2022-11-15T08:24:01.268Z,18.44
2022-11-15T08:26:31.399Z,18.78
2022-11-15T08:29:01.703Z,17.45
2022-11-15T08:31:31.510Z,17.92
2022-11-15T08:34:03.635Z,17.95
2022-11-15T08:36:37.018Z,18.13
2022-11-15T08:39:14.950Z,17.18
2022-11-15T08:41:42.852Z,15.59
2022-11-15T08:44:15.322Z,17.00
2022-11-15T08:46:43.241Z,17.34
2022-11-15T08:49:15.375Z,18.13
2022-11-15T08:51:43.230Z,18.02
2022-11-15T08:54:12.284Z,17.04
2022-11-15T08:56:40.269Z,18.29
2022-11-15T08:59:08.459Z,18.02
2022-11-15T09:01:37.816Z,18.54
2022-11-15T09:04:06.216Z,19.62
2022-11-15T09:06:34.498Z,20.18
2022-11-15T09:09:02.718Z,20.53
2022-11-15T09:11:30.578Z,20.76
2022-11-15T09:13:59.283Z,20.99
2022-11-15T09:16:27.076Z,21.22
2022-11-15T09:18:56.248Z,21.48
2022-11-15T09:21:24.047Z,21.92
2022-11-15T09:23:52.890Z,22.02
2022-11-15T09:26:20.784Z,22.03
2022-11-15T09:28:48.576Z,22.14
2022-11-15T09:31:21.025Z,21.67
2022-11-15T09:33:51.214Z,21.13
2022-11-15T09:36:20.723Z,20.54
2022-11-15T09:38:48.760Z,22.59
2022-11-15T09:41:38.397Z,22.76
2022-11-15T09:44:13.685Z,22.73
2022-11-15T09:46:46.391Z,23.27
2022-11-15T09:49:15.607Z,23.54
2022-11-15T09:51:48.599Z,23.31
2022-11-15T09:54:52.614Z,22.98
2022-11-15T09:57:16.054Z,22.98
2022-11-15T09:59:54.711Z,22.61
2022-11-15T10:02:35.388Z,23.00
2022-11-15T10:05:03.292Z,23.11
2022-11-15T10:07:42.815Z,23.42
2022-11-15T10:10:13.837Z,23.18
2022-11-15T10:12:41.673Z,23.27
2022-11-15T10:15:15.134Z,23.57
2022-11-15T10:17:59.317Z,24.33
2022-11-15T10:20:28.523Z,24.56
2022-11-15T10:23:00.908Z,24.82
2022-11-15T10:25:29.324Z,25.55
2022-11-15T10:27:59.261Z,25.01
2022-11-15T10:30:33.656Z,25.03
2022-11-15T10:33:01.984Z,26.43
2022-11-15T10:35:34.326Z,28.07
2022-11-15T10:38:10.984Z,27.80
2022-11-15T10:40:39.789Z,27.87
2022-11-15T10:43:18.381Z,26.76
2022-11-15T10:45:46.477Z,26.69
2022-11-15T10:48:23.507Z,29.43
2022-11-15T10:50:52.253Z,28.58
2022-11-15T10:53:24.849Z,31.07
2022-11-15T10:55:54.932Z,31.56
2022-11-15T10:58:24.995Z,33.13
2022-11-15T11:00:56.191Z,30.74
2022-11-15T11:03:30.622Z,31.14
2022-11-15T11:06:09.618Z,30.97
2022-11-15T11:08:39.255Z,30.04
2022-11-15T11:11:08.175Z,31.68
2022-11-15T11:13:37.475Z,31.44
2022-11-15T11:16:28.891Z,32.93
2022-11-15T11:19:00.237Z,32.92
2022-11-15T11:21:38.400Z,33.77
2022-11-15T11:24:12.585Z,33.53
2022-11-15T11:26:44.722Z,35.19
2022-11-15T11:29:26.173Z,35.36
2022-11-15T11:31:58.303Z,35.63
2022-11-15T11:34:36.236Z,37.33
2022-11-15T11:37:11.924Z,36.93
2022-11-15T11:39:46.075Z,37.87
2022-11-15T11:42:18.346Z,38.06
2022-11-15T11:44:51.598Z,38.81
2022-11-15T11:47:22.732Z,37.71
2022-11-15T11:49:53.269Z,37.84
2022-11-15T11:52:24.586Z,37.02
2022-11-15T11:54:58.974Z,37.13
2022-11-15T11:57:31.685Z,37.23
2022-11-15T12:00:03.208Z,37.70
2022-11-15T12:02:33.331Z,37.45
2022-11-15T12:05:06.400Z,38.26
2022-11-15T12:07:36.159Z,37.90
2022-11-15T12:10:07.793Z,34.13
2022-11-15T12:12:38.686Z,33.69
2022-11-15T12:15:12.727Z,33.18
2022-11-15T12:17:41.059Z,31.91
2022-11-15T12:20:17.376Z,30.97
2022-11-15T12:22:46.085Z,30.53
2022-11-15T12:25:19.451Z,29.61
2022-11-15T12:27:48.870Z,28.87
2022-11-15T12:30:17.770Z,27.54
2022-11-15T12:32:54.111Z,28.39
2022-11-15T12:35:30.692Z,27.74
2022-11-15T12:37:59.097Z,25.33
2022-11-15T12:40:36.441Z,24.53
2022-11-15T12:43:07.387Z,23.15
2022-11-15T12:45:36.368Z,24.76
2022-11-15T12:48:41.923Z,24.41
2022-11-15T12:51:10.509Z,21.84
2022-11-15T12:53:39.823Z,21.54
2022-11-15T12:56:23.716Z,23.13
2022-11-15T12:58:54.869Z,20.41
2022-11-15T13:01:56.135Z,21.56
2022-11-15T13:04:27.280Z,21.81
2022-11-15T13:06:57.124Z,22.03
2022-11-15T13:09:58.658Z,21.46
2022-11-15T13:12:54.520Z,21.73
2022-11-15T13:15:59.278Z,19.35
2022-11-15T13:18:39.640Z,20.65
2022-11-15T13:21:42.277Z,19.86
2022-11-15T13:24:15.891Z,19.43
2022-11-15T13:26:44.263Z,19.48
2022-11-15T13:29:19.956Z,18.16
2022-11-15T13:31:48.985Z,20.16
2022-11-15T13:34:50.120Z,17.78
2022-11-15T13:37:14.425Z,19.95
2022-11-15T13:39:42.783Z,19.56
2022-11-15T13:42:16.003Z,20.16
2022-11-15T13:44:56.870Z,18.56
2022-11-15T13:47:25.012Z,18.79
2022-11-15T13:49:52.969Z,19.97
2022-11-15T13:52:22.608Z,18.33
2022-11-15T13:54:54.874Z,19.14
2022-11-15T13:57:24.181Z,19.79
2022-11-15T13:59:54.561Z,18.97
2022-11-15T14:02:24.577Z,18.43
2022-11-15T14:04:53.957Z,17.01
2022-11-15T14:07:27.765Z,17.29
2022-11-15T14:09:59.044Z,18.93
2022-11-15T14:12:30.194Z,18.34
2022-11-15T14:15:00.210Z,17.36
2022-11-15T14:17:45.747Z,18.64
2022-11-15T14:20:29.478Z,17.32
2022-11-15T14:22:57.833Z,17.24
2022-11-15T14:25:26.399Z,18.23
2022-11-15T14:28:12.297Z,19.24
2022-11-15T14:30:42.224Z,18.42
2022-11-15T14:33:24.648Z,17.32
2022-11-15T14:35:52.928Z,17.11
2022-11-15T14:38:21.156Z,18.24
2022-11-15T14:40:48.929Z,18.90
2022-11-15T14:43:16.872Z,16.06
2022-11-15T14:45:46.682Z,16.14
2022-11-15T14:48:15.098Z,17.66
2022-11-15T14:50:43.271Z,17.08
2022-11-15T14:53:15.541Z,18.90
2022-11-15T14:55:43.781Z,15.29
2022-11-15T14:58:12.226Z,17.30
2022-11-15T15:00:40.932Z,18.09
2022-11-15T15:03:10.417Z,15.57
2022-11-15T15:05:39.544Z,16.52
2022-11-15T15:08:07.643Z,17.99
2022-11-15T15:10:40.557Z,18.09
2022-11-15T15:13:15.051Z,18.62
2022-11-15T15:15:43.450Z,16.68
2022-11-15T15:18:12.875Z,18.50
2022-11-15T15:20:41.671Z,17.84
2022-11-15T15:23:13.523Z,15.85
2022-11-15T15:25:43.125Z,16.54
2022-11-15T15:28:15.472Z,16.49
2022-11-15T15:30:46.231Z,15.52
2022-11-15T15:33:18.337Z,18.37
2022-11-15T15:35:46.227Z,16.38
2022-11-15T15:38:14.412Z,17.68
2022-11-15T15:40:42.492Z,17.27
2022-11-15T15:43:10.510Z,17.93
2022-11-15T15:45:38.961Z,18.28
2022-11-15T15:48:08.174Z,16.10
2022-11-15T15:50:37.897Z,18.23
2022-11-15T15:53:06.138Z,18.18
2022-11-15T15:55:34.078Z,15.48
2022-11-15T15:58:02.212Z,17.45
2022-11-15T16:00:30.246Z,17.43
2022-11-15T16:02:59.566Z,16.14
2022-11-15T16:05:27.684Z,16.13
2022-11-15T16:07:57.297Z,17.99
2022-11-15T16:10:26.935Z,16.90
2022-11-15T16:12:55.423Z,17.25
2022-11-15T16:15:24.758Z,16.15
2022-11-15T16:17:53.362Z,17.93
2022-11-15T16:20:30.691Z,16.53
2022-11-15T16:23:05.807Z,16.56
2022-11-15T16:25:42.616Z,17.85
2022-11-15T16:28:19.207Z,16.81
2022-11-15T16:30:49.901Z,16.78
2022-11-15T16:33:21.251Z,17.79
2022-11-15T16:35:49.915Z,16.79
2022-11-15T16:38:20.486Z,14.94
2022-11-15T16:40:48.973Z,15.39
2022-11-15T16:43:17.208Z,17.77
2022-11-15T16:45:44.998Z,17.53
2022-11-15T16:48:21.413Z,17.80
2022-11-15T16:50:49.501Z,17.53
2022-11-15T16:53:17.371Z,17.78
2022-11-15T16:55:46.555Z,17.77
2022-11-15T16:58:14.313Z,17.77
2022-11-15T17:00:42.073Z,17.79
2022-11-15T17:03:09.967Z,17.59
2022-11-15T17:05:37.652Z,17.81
2022-11-15T17:08:10.044Z,17.46
2022-11-15T17:10:39.971Z,17.80
2022-11-15T17:13:10.042Z,16.61
2022-11-15T17:15:37.790Z,17.57
2022-11-15T17:18:06.563Z,17.33
2022-11-15T17:20:34.350Z,17.75
2022-11-15T17:23:02.112Z,17.49
2022-11-15T17:25:29.815Z,17.70
2022-11-15T17:27:58.270Z,17.64
2022-11-15T17:30:28.432Z,16.78
2022-11-15T17:32:57.351Z,17.22
2022-11-15T17:35:26.935Z,17.47
2022-11-15T17:37:55.863Z,16.73
2022-11-15T17:40:24.592Z,17.24
2022-11-15T17:42:57.648Z,16.86
2022-11-15T17:45:27.643Z,16.51
2022-11-15T17:55:35.038Z,15.71
2022-11-15T18:06:06.705Z,16.80
2022-11-15T18:24:48.695Z,14.61
2022-11-15T18:27:27.470Z,16.66
2022-11-15T18:30:47.008Z,17.84
2022-11-15T18:51:59.308Z,16.24
2022-11-15T19:19:57.116Z,16.67
2022-11-15T19:26:57.324Z,16.95
2022-11-15T19:30:24.230Z,16.92
2022-11-15T20:48:12.677Z,16.30
2022-11-15T22:30:46.123Z,16.21
2022-11-15T22:33:16.099Z,16.19
2022-11-15T22:35:44.525Z,16.26
2022-11-15T22:38:12.875Z,14.10
2022-11-15T22:40:41.515Z,16.26
2022-11-15T22:43:09.785Z,14.49
2022-11-15T22:45:37.845Z,15.56
2022-11-15T22:48:05.984Z,15.17
2022-11-15T22:50:35.385Z,14.72
2022-11-15T22:53:03.358Z,13.78
2022-11-15T22:55:31.355Z,15.64
2022-11-15T22:57:59.347Z,16.20
2022-11-15T23:00:27.306Z,14.59
2022-11-15T23:02:55.897Z,15.50
2022-11-15T23:05:25.717Z,14.47
2022-11-15T23:07:55.285Z,15.60
2022-11-15T23:10:40.851Z,16.19
2022-11-15T23:13:18.254Z,16.09
2022-11-15T23:16:05.092Z,14.85
2022-11-15T23:18:35.629Z,15.04
2022-11-15T23:21:09.902Z,13.68
2022-11-15T23:23:38.356Z,16.14
2022-11-15T23:26:06.589Z,15.77
2022-11-15T23:28:35.084Z,13.93
2022-11-15T23:31:21.866Z,15.53
2022-11-15T23:33:58.659Z,13.36
2022-11-15T23:36:27.103Z,14.42
2022-11-15T23:38:56.796Z,15.47
2022-11-15T23:41:25.329Z,15.52
2022-11-15T23:43:53.531Z,14.36
2022-11-15T23:46:21.779Z,14.84
2022-11-15T23:48:49.734Z,14.22
2022-11-15T23:51:17.724Z,14.81
2022-11-15T23:53:45.628Z,14.49
2022-11-15T23:56:15.798Z,16.05
2022-11-15T23:58:44.161Z,15.29
